sensor_id;sensor_type;location;lat;lon;timestamp;temperature;humidity
67641;SHT31;54434;50.096;20.082;2023-01-25T00:01:27;1.73;88.57
67641;SHT31;54434;50.096;20.082;2023-01-25T00:04:04;1.73;88.56
67641;SHT31;54434;50.096;20.082;2023-01-25T00:06:41;1.72;88.47
67641;SHT31;54434;50.096;20.082;2023-01-25T00:09:18;1.73;88.46
67641;SHT31;54434;50.096;20.082;2023-01-25T00:11:57;1.73;88.43
67641;SHT31;54434;50.096;20.082;2023-01-25T00:14:33;1.72;88.38
67641;SHT31;54434;50.096;20.082;2023-01-25T00:17:10;1.72;88.38
67641;SHT31;54434;50.096;20.082;2023-01-25T00:19:47;1.71;88.34
67641;SHT31;54434;50.096;20.082;2023-01-25T00:22:23;1.73;88.33
67641;SHT31;54434;50.096;20.082;2023-01-25T00:24:59;1.73;88.33
67641;SHT31;54434;50.096;20.082;2023-01-25T00:27:37;1.74;88.30
67641;SHT31;54434;50.096;20.082;2023-01-25T00:30:14;1.75;88.30
67641;SHT31;54434;50.096;20.082;2023-01-25T00:32:57;1.74;88.30
67641;SHT31;54434;50.096;20.082;2023-01-25T00:35:39;1.72;88.26
67641;SHT31;54434;50.096;20.082;2023-01-25T00:38:26;1.73;88.33
67641;SHT31;54434;50.096;20.082;2023-01-25T00:41:06;1.78;88.26
67641;SHT31;54434;50.096;20.082;2023-01-25T00:43:44;1.79;88.20
67641;SHT31;54434;50.096;20.082;2023-01-25T00:46:20;1.80;88.13
67641;SHT31;54434;50.096;20.082;2023-01-25T00:48:56;1.81;88.10
67641;SHT31;54434;50.096;20.082;2023-01-25T00:51:32;1.82;88.12
67641;SHT31;54434;50.096;20.082;2023-01-25T00:54:09;1.83;88.20
67641;SHT31;54434;50.096;20.082;2023-01-25T00:56:45;1.82;88.21
67641;SHT31;54434;50.096;20.082;2023-01-25T00:59:25;1.81;88.20
67641;SHT31;54434;50.096;20.082;2023-01-25T01:02:01;1.80;88.21
67641;SHT31;54434;50.096;20.082;2023-01-25T01:04:38;1.81;88.25
67641;SHT31;54434;50.096;20.082;2023-01-25T01:07:15;1.82;88.22
67641;SHT31;54434;50.096;20.082;2023-01-25T01:09:51;1.84;88.26
67641;SHT31;54434;50.096;20.082;2023-01-25T01:12:28;1.84;88.20
67641;SHT31;54434;50.096;20.082;2023-01-25T01:15:06;1.85;88.16
67641;SHT31;54434;50.096;20.082;2023-01-25T01:17:43;1.85;88.09
67641;SHT31;54434;50.096;20.082;2023-01-25T01:20:20;1.88;88.09
67641;SHT31;54434;50.096;20.082;2023-01-25T01:22:57;1.87;87.98
67641;SHT31;54434;50.096;20.082;2023-01-25T01:25:34;1.88;87.97
67641;SHT31;54434;50.096;20.082;2023-01-25T01:28:11;1.89;87.98
67641;SHT31;54434;50.096;20.082;2023-01-25T01:30:48;1.86;87.84
67641;SHT31;54434;50.096;20.082;2023-01-25T01:33:25;1.87;87.88
67641;SHT31;54434;50.096;20.082;2023-01-25T01:36:06;1.88;87.79
67641;SHT31;54434;50.096;20.082;2023-01-25T01:38:45;1.87;87.71
67641;SHT31;54434;50.096;20.082;2023-01-25T01:41:21;1.86;87.74
67641;SHT31;54434;50.096;20.082;2023-01-25T01:43:58;1.85;87.80
67641;SHT31;54434;50.096;20.082;2023-01-25T01:46:35;1.86;87.81
67641;SHT31;54434;50.096;20.082;2023-01-25T01:49:18;1.86;87.86
67641;SHT31;54434;50.096;20.082;2023-01-25T01:52:04;1.85;87.80
67641;SHT31;54434;50.096;20.082;2023-01-25T01:54:47;1.82;87.91
67641;SHT31;54434;50.096;20.082;2023-01-25T01:57:30;1.82;87.93
67641;SHT31;54434;50.096;20.082;2023-01-25T02:00:16;1.84;87.86
67641;SHT31;54434;50.096;20.082;2023-01-25T02:02:58;1.86;87.79
67641;SHT31;54434;50.096;20.082;2023-01-25T02:05:39;1.85;87.78
67641;SHT31;54434;50.096;20.082;2023-01-25T02:08:31;1.83;87.80
67641;SHT31;54434;50.096;20.082;2023-01-25T02:11:12;1.84;87.78
67641;SHT31;54434;50.096;20.082;2023-01-25T02:13:48;1.83;87.81
67641;SHT31;54434;50.096;20.082;2023-01-25T02:16:28;1.83;87.88
67641;SHT31;54434;50.096;20.082;2023-01-25T02:19:07;1.84;87.88
67641;SHT31;54434;50.096;20.082;2023-01-25T02:21:56;1.84;87.88
67641;SHT31;54434;50.096;20.082;2023-01-25T02:24:38;1.83;87.86
67641;SHT31;54434;50.096;20.082;2023-01-25T02:27:25;1.82;87.86
67641;SHT31;54434;50.096;20.082;2023-01-25T02:30:02;1.80;87.87
67641;SHT31;54434;50.096;20.082;2023-01-25T02:32:41;1.79;87.90
67641;SHT31;54434;50.096;20.082;2023-01-25T02:35:22;1.81;87.88
67641;SHT31;54434;50.096;20.082;2023-01-25T02:38:14;1.83;87.84
67641;SHT31;54434;50.096;20.082;2023-01-25T02:40:58;1.84;87.82
67641;SHT31;54434;50.096;20.082;2023-01-25T02:43:39;1.84;87.80
67641;SHT31;54434;50.096;20.082;2023-01-25T02:46:22;1.83;87.85
67641;SHT31;54434;50.096;20.082;2023-01-25T02:49:04;1.84;87.90
67641;SHT31;54434;50.096;20.082;2023-01-25T02:51:44;1.84;87.82
67641;SHT31;54434;50.096;20.082;2023-01-25T02:54:23;1.84;87.76
67641;SHT31;54434;50.096;20.082;2023-01-25T02:57:00;1.86;87.70
67641;SHT31;54434;50.096;20.082;2023-01-25T02:59:43;1.85;87.65
67641;SHT31;54434;50.096;20.082;2023-01-25T03:02:20;1.86;87.60
67641;SHT31;54434;50.096;20.082;2023-01-25T03:04:56;1.87;87.58
67641;SHT31;54434;50.096;20.082;2023-01-25T03:07:33;1.89;87.44
67641;SHT31;54434;50.096;20.082;2023-01-25T03:10:10;1.85;87.46
67641;SHT31;54434;50.096;20.082;2023-01-25T03:12:47;1.77;87.45
67641;SHT31;54434;50.096;20.082;2023-01-25T03:15:26;1.77;87.68
67641;SHT31;54434;50.096;20.082;2023-01-25T03:18:02;1.78;87.72
67641;SHT31;54434;50.096;20.082;2023-01-25T03:20:39;1.75;87.74
67641;SHT31;54434;50.096;20.082;2023-01-25T03:23:15;1.75;87.82
67641;SHT31;54434;50.096;20.082;2023-01-25T03:25:52;1.78;87.84
67641;SHT31;54434;50.096;20.082;2023-01-25T03:28:36;1.78;87.82
67641;SHT31;54434;50.096;20.082;2023-01-25T03:31:15;1.79;87.86
67641;SHT31;54434;50.096;20.082;2023-01-25T03:33:52;1.79;87.86
67641;SHT31;54434;50.096;20.082;2023-01-25T03:36:31;1.75;87.84
67641;SHT31;54434;50.096;20.082;2023-01-25T03:39:07;1.75;87.90
67641;SHT31;54434;50.096;20.082;2023-01-25T03:41:47;1.74;87.90
67641;SHT31;54434;50.096;20.082;2023-01-25T03:44:23;1.71;87.91
67641;SHT31;54434;50.096;20.082;2023-01-25T03:47:01;1.73;88.00
67641;SHT31;54434;50.096;20.082;2023-01-25T03:49:38;1.73;87.91
67641;SHT31;54434;50.096;20.082;2023-01-25T03:52:15;1.76;87.92
67641;SHT31;54434;50.096;20.082;2023-01-25T03:54:55;1.76;87.93
67641;SHT31;54434;50.096;20.082;2023-01-25T03:57:32;1.75;87.82
67641;SHT31;54434;50.096;20.082;2023-01-25T04:00:11;1.77;87.85
67641;SHT31;54434;50.096;20.082;2023-01-25T04:02:51;1.75;87.85
67641;SHT31;54434;50.096;20.082;2023-01-25T04:05:28;1.75;87.91
67641;SHT31;54434;50.096;20.082;2023-01-25T04:08:04;1.75;87.93
67641;SHT31;54434;50.096;20.082;2023-01-25T04:10:42;1.74;87.92
67641;SHT31;54434;50.096;20.082;2023-01-25T04:13:24;1.72;87.97
67641;SHT31;54434;50.096;20.082;2023-01-25T04:16:01;1.75;88.00
67641;SHT31;54434;50.096;20.082;2023-01-25T04:19:03;1.77;88.00
67641;SHT31;54434;50.096;20.082;2023-01-25T04:21:40;1.78;88.01
67641;SHT31;54434;50.096;20.082;2023-01-25T04:24:16;1.79;87.98
67641;SHT31;54434;50.096;20.082;2023-01-25T04:26:53;1.81;87.93
67641;SHT31;54434;50.096;20.082;2023-01-25T04:29:30;1.82;87.92
67641;SHT31;54434;50.096;20.082;2023-01-25T04:32:15;1.82;87.90
67641;SHT31;54434;50.096;20.082;2023-01-25T04:34:52;1.80;87.90
67641;SHT31;54434;50.096;20.082;2023-01-25T04:37:30;1.80;87.91
67641;SHT31;54434;50.096;20.082;2023-01-25T04:40:09;1.79;87.97
67641;SHT31;54434;50.096;20.082;2023-01-25T04:42:47;1.77;87.99
67641;SHT31;54434;50.096;20.082;2023-01-25T04:45:24;1.76;88.02
67641;SHT31;54434;50.096;20.082;2023-01-25T04:48:02;1.72;88.07
67641;SHT31;54434;50.096;20.082;2023-01-25T04:50:44;1.72;88.15
67641;SHT31;54434;50.096;20.082;2023-01-25T04:53:22;1.73;88.18
67641;SHT31;54434;50.096;20.082;2023-01-25T04:56:03;1.73;88.20
67641;SHT31;54434;50.096;20.082;2023-01-25T04:59:03;1.74;88.21
67641;SHT31;54434;50.096;20.082;2023-01-25T05:01:39;1.74;88.26
67641;SHT31;54434;50.096;20.082;2023-01-25T05:04:15;1.74;88.22
67641;SHT31;54434;50.096;20.082;2023-01-25T05:06:53;1.76;88.24
67641;SHT31;54434;50.096;20.082;2023-01-25T05:09:29;1.76;88.27
67641;SHT31;54434;50.096;20.082;2023-01-25T05:12:06;1.72;88.22
67641;SHT31;54434;50.096;20.082;2023-01-25T05:15:33;1.72;88.22
67641;SHT31;54434;50.096;20.082;2023-01-25T05:18:10;1.73;88.20
67641;SHT31;54434;50.096;20.082;2023-01-25T05:20:46;1.72;88.20
67641;SHT31;54434;50.096;20.082;2023-01-25T05:23:28;1.74;88.20
67641;SHT31;54434;50.096;20.082;2023-01-25T05:26:06;1.74;88.21
67641;SHT31;54434;50.096;20.082;2023-01-25T05:29:01;1.73;88.20
67641;SHT31;54434;50.096;20.082;2023-01-25T05:31:45;1.73;88.20
67641;SHT31;54434;50.096;20.082;2023-01-25T05:34:22;1.74;88.20
67641;SHT31;54434;50.096;20.082;2023-01-25T05:36:58;1.74;88.20
67641;SHT31;54434;50.096;20.082;2023-01-25T05:39:37;1.73;88.23
67641;SHT31;54434;50.096;20.082;2023-01-25T05:42:15;1.72;88.20
67641;SHT31;54434;50.096;20.082;2023-01-25T05:44:52;1.74;88.28
67641;SHT31;54434;50.096;20.082;2023-01-25T05:47:28;1.74;88.24
67641;SHT31;54434;50.096;20.082;2023-01-25T05:50:07;1.75;88.23
67641;SHT31;54434;50.096;20.082;2023-01-25T05:53:27;1.75;88.27
67641;SHT31;54434;50.096;20.082;2023-01-25T05:56:08;1.76;88.22
67641;SHT31;54434;50.096;20.082;2023-01-25T05:58:44;1.77;88.25
67641;SHT31;54434;50.096;20.082;2023-01-25T06:01:24;1.76;88.20
67641;SHT31;54434;50.096;20.082;2023-01-25T06:04:01;1.76;88.21
67641;SHT31;54434;50.096;20.082;2023-01-25T06:06:38;1.76;88.20
67641;SHT31;54434;50.096;20.082;2023-01-25T06:09:15;1.74;88.21
67641;SHT31;54434;50.096;20.082;2023-01-25T06:11:51;1.76;88.24
67641;SHT31;54434;50.096;20.082;2023-01-25T06:14:27;1.75;88.20
67641;SHT31;54434;50.096;20.082;2023-01-25T06:17:05;1.76;88.20
67641;SHT31;54434;50.096;20.082;2023-01-25T06:20:00;1.77;88.20
67641;SHT31;54434;50.096;20.082;2023-01-25T06:22:39;1.76;88.20
67641;SHT31;54434;50.096;20.082;2023-01-25T06:25:20;1.77;88.20
67641;SHT31;54434;50.096;20.082;2023-01-25T06:27:56;1.79;88.18
67641;SHT31;54434;50.096;20.082;2023-01-25T06:30:33;1.78;88.20
67641;SHT31;54434;50.096;20.082;2023-01-25T06:33:09;1.79;88.10
67641;SHT31;54434;50.096;20.082;2023-01-25T06:35:46;1.79;88.10
67641;SHT31;54434;50.096;20.082;2023-01-25T06:38:23;1.78;88.04
67641;SHT31;54434;50.096;20.082;2023-01-25T06:41:03;1.79;88.04
67641;SHT31;54434;50.096;20.082;2023-01-25T06:43:43;1.78;88.06
67641;SHT31;54434;50.096;20.082;2023-01-25T06:46:21;1.79;88.07
67641;SHT31;54434;50.096;20.082;2023-01-25T06:48:58;1.78;88.03
67641;SHT31;54434;50.096;20.082;2023-01-25T06:51:34;1.78;88.06
67641;SHT31;54434;50.096;20.082;2023-01-25T06:54:11;1.78;88.08
67641;SHT31;54434;50.096;20.082;2023-01-25T06:56:47;1.75;88.07
67641;SHT31;54434;50.096;20.082;2023-01-25T06:59:23;1.77;88.20
67641;SHT31;54434;50.096;20.082;2023-01-25T07:01:59;1.78;88.19
67641;SHT31;54434;50.096;20.082;2023-01-25T07:04:37;1.81;88.20
67641;SHT31;54434;50.096;20.082;2023-01-25T07:07:14;1.82;88.18
67641;SHT31;54434;50.096;20.082;2023-01-25T07:09:50;1.83;88.11
67641;SHT31;54434;50.096;20.082;2023-01-25T07:12:28;1.84;88.17
67641;SHT31;54434;50.096;20.082;2023-01-25T07:15:05;1.84;88.13
67641;SHT31;54434;50.096;20.082;2023-01-25T07:17:43;1.84;88.11
67641;SHT31;54434;50.096;20.082;2023-01-25T07:20:19;1.86;88.11
67641;SHT31;54434;50.096;20.082;2023-01-25T07:22:55;1.87;88.11
67641;SHT31;54434;50.096;20.082;2023-01-25T07:25:32;1.88;88.10
67641;SHT31;54434;50.096;20.082;2023-01-25T07:28:09;1.88;88.07
67641;SHT31;54434;50.096;20.082;2023-01-25T07:30:46;1.88;88.08
67641;SHT31;54434;50.096;20.082;2023-01-25T07:33:22;1.90;88.08
67641;SHT31;54434;50.096;20.082;2023-01-25T07:36:01;1.92;88.09
67641;SHT31;54434;50.096;20.082;2023-01-25T07:38:40;1.93;88.06
67641;SHT31;54434;50.096;20.082;2023-01-25T07:41:17;1.96;88.04
67641;SHT31;54434;50.096;20.082;2023-01-25T07:43:55;1.97;88.07
67641;SHT31;54434;50.096;20.082;2023-01-25T07:46:44;2.00;88.03
67641;SHT31;54434;50.096;20.082;2023-01-25T07:49:20;2.02;88.08
67641;SHT31;54434;50.096;20.082;2023-01-25T07:51:57;2.02;88.01
67641;SHT31;54434;50.096;20.082;2023-01-25T07:54:33;2.03;88.00
67641;SHT31;54434;50.096;20.082;2023-01-25T07:57:09;2.03;88.02
67641;SHT31;54434;50.096;20.082;2023-01-25T07:59:46;2.05;88.03
67641;SHT31;54434;50.096;20.082;2023-01-25T08:02:23;2.08;88.03
67641;SHT31;54434;50.096;20.082;2023-01-25T08:04:59;2.09;87.99
67641;SHT31;54434;50.096;20.082;2023-01-25T08:07:37;2.11;87.97
67641;SHT31;54434;50.096;20.082;2023-01-25T08:10:13;2.14;87.99
67641;SHT31;54434;50.096;20.082;2023-01-25T08:12:50;2.17;87.91
67641;SHT31;54434;50.096;20.082;2023-01-25T08:15:26;2.21;87.93
67641;SHT31;54434;50.096;20.082;2023-01-25T08:18:03;2.22;87.82
67641;SHT31;54434;50.096;20.082;2023-01-25T08:20:39;2.24;87.77
67641;SHT31;54434;50.096;20.082;2023-01-25T08:23:15;2.30;87.80
67641;SHT31;54434;50.096;20.082;2023-01-25T08:25:53;2.36;87.71
67641;SHT31;54434;50.096;20.082;2023-01-25T08:28:33;2.40;87.63
67641;SHT31;54434;50.096;20.082;2023-01-25T08:31:11;2.44;87.45
67641;SHT31;54434;50.096;20.082;2023-01-25T08:33:50;2.49;87.41
67641;SHT31;54434;50.096;20.082;2023-01-25T08:36:26;2.53;87.19
67641;SHT31;54434;50.096;20.082;2023-01-25T08:39:05;2.58;87.12
67641;SHT31;54434;50.096;20.082;2023-01-25T08:41:43;2.61;86.83
67641;SHT31;54434;50.096;20.082;2023-01-25T08:44:20;2.65;86.68
67641;SHT31;54434;50.096;20.082;2023-01-25T08:46:56;2.66;86.22
67641;SHT31;54434;50.096;20.082;2023-01-25T08:49:33;2.69;85.97
67641;SHT31;54434;50.096;20.082;2023-01-25T08:52:09;2.75;85.87
67641;SHT31;54434;50.096;20.082;2023-01-25T08:54:46;2.81;85.86
67641;SHT31;54434;50.096;20.082;2023-01-25T08:57:23;2.84;85.63
67641;SHT31;54434;50.096;20.082;2023-01-25T09:00:00;2.88;85.45
67641;SHT31;54434;50.096;20.082;2023-01-25T09:02:38;2.95;85.45
67641;SHT31;54434;50.096;20.082;2023-01-25T09:05:15;2.99;85.40
67641;SHT31;54434;50.096;20.082;2023-01-25T09:07:52;3.06;85.40
67641;SHT31;54434;50.096;20.082;2023-01-25T09:10:30;3.09;85.34
67641;SHT31;54434;50.096;20.082;2023-01-25T09:13:07;3.14;85.49
67641;SHT31;54434;50.096;20.082;2023-01-25T09:15:45;3.17;85.48
67641;SHT31;54434;50.096;20.082;2023-01-25T09:18:21;3.22;85.48
67641;SHT31;54434;50.096;20.082;2023-01-25T09:20:58;3.24;85.34
67641;SHT31;54434;50.096;20.082;2023-01-25T09:23:40;3.27;85.23
67641;SHT31;54434;50.096;20.082;2023-01-25T09:26:38;3.29;85.05
67641;SHT31;54434;50.096;20.082;2023-01-25T09:29:27;3.30;84.81
67641;SHT31;54434;50.096;20.082;2023-01-25T09:32:04;3.32;84.58
67641;SHT31;54434;50.096;20.082;2023-01-25T09:34:53;3.34;84.59
67641;SHT31;54434;50.096;20.082;2023-01-25T09:37:29;3.42;84.87
67641;SHT31;54434;50.096;20.082;2023-01-25T09:40:10;3.49;84.73
67641;SHT31;54434;50.096;20.082;2023-01-25T09:43:02;3.53;84.03
67641;SHT31;54434;50.096;20.082;2023-01-25T09:45:43;3.56;83.76
67641;SHT31;54434;50.096;20.082;2023-01-25T09:48:24;3.64;83.80
67641;SHT31;54434;50.096;20.082;2023-01-25T09:51:18;3.72;83.99
67641;SHT31;54434;50.096;20.082;2023-01-25T09:53:58;3.74;83.79
67641;SHT31;54434;50.096;20.082;2023-01-25T09:56:35;3.70;83.62
67641;SHT31;54434;50.096;20.082;2023-01-25T09:59:13;3.71;83.66
67641;SHT31;54434;50.096;20.082;2023-01-25T10:01:58;3.70;83.40
67641;SHT31;54434;50.096;20.082;2023-01-25T10:04:42;3.67;83.10
67641;SHT31;54434;50.096;20.082;2023-01-25T10:07:26;3.66;82.99
67641;SHT31;54434;50.096;20.082;2023-01-25T10:10:19;3.71;83.17
67641;SHT31;54434;50.096;20.082;2023-01-25T10:13:02;3.74;83.26
67641;SHT31;54434;50.096;20.082;2023-01-25T10:15:45;3.77;82.93
67641;SHT31;54434;50.096;20.082;2023-01-25T10:18:28;3.79;82.91
67641;SHT31;54434;50.096;20.082;2023-01-25T10:21:12;3.80;82.70
67641;SHT31;54434;50.096;20.082;2023-01-25T10:24:17;3.85;82.67
67641;SHT31;54434;50.096;20.082;2023-01-25T10:27:18;3.90;82.65
67641;SHT31;54434;50.096;20.082;2023-01-25T10:30:27;3.96;82.77
67641;SHT31;54434;50.096;20.082;2023-01-25T10:33:13;4.03;82.75
67641;SHT31;54434;50.096;20.082;2023-01-25T10:35:52;4.05;82.20
67641;SHT31;54434;50.096;20.082;2023-01-25T10:38:35;4.04;82.37
67641;SHT31;54434;50.096;20.082;2023-01-25T10:41:19;4.13;82.32
67641;SHT31;54434;50.096;20.082;2023-01-25T10:44:03;4.20;81.73
67641;SHT31;54434;50.096;20.082;2023-01-25T10:46:59;4.24;81.36
67641;SHT31;54434;50.096;20.082;2023-01-25T10:49:45;4.27;81.45
67641;SHT31;54434;50.096;20.082;2023-01-25T10:52:26;4.30;80.91
67641;SHT31;54434;50.096;20.082;2023-01-25T10:55:14;4.34;80.50
67641;SHT31;54434;50.096;20.082;2023-01-25T10:57:55;4.36;80.30
67641;SHT31;54434;50.096;20.082;2023-01-25T11:00:33;4.38;80.41
67641;SHT31;54434;50.096;20.082;2023-01-25T11:03:19;4.42;80.55
67641;SHT31;54434;50.096;20.082;2023-01-25T11:06:06;4.41;80.59
67641;SHT31;54434;50.096;20.082;2023-01-25T11:08:43;4.39;80.33
67641;SHT31;54434;50.096;20.082;2023-01-25T11:11:26;4.40;80.04
67641;SHT31;54434;50.096;20.082;2023-01-25T11:14:17;4.41;79.94
67641;SHT31;54434;50.096;20.082;2023-01-25T11:16:59;4.40;80.20
67641;SHT31;54434;50.096;20.082;2023-01-25T11:19:39;4.41;79.75
67641;SHT31;54434;50.096;20.082;2023-01-25T11:22:22;4.35;79.66
67641;SHT31;54434;50.096;20.082;2023-01-25T11:24:59;4.31;79.53
67641;SHT31;54434;50.096;20.082;2023-01-25T11:28:16;4.26;79.30
67641;SHT31;54434;50.096;20.082;2023-01-25T11:30:55;4.25;79.66
67641;SHT31;54434;50.096;20.082;2023-01-25T11:33:32;4.26;79.64
67641;SHT31;54434;50.096;20.082;2023-01-25T11:36:26;4.23;79.66
67641;SHT31;54434;50.096;20.082;2023-01-25T11:39:20;4.24;79.83
67641;SHT31;54434;50.096;20.082;2023-01-25T11:42:25;4.22;79.40
67641;SHT31;54434;50.096;20.082;2023-01-25T11:45:22;4.21;79.31
67641;SHT31;54434;50.096;20.082;2023-01-25T11:48:41;4.15;79.41
67641;SHT31;54434;50.096;20.082;2023-01-25T11:51:40;4.12;79.70
67641;SHT31;54434;50.096;20.082;2023-01-25T11:54:47;4.03;79.56
67641;SHT31;54434;50.096;20.082;2023-01-25T11:57:43;4.02;79.28
67641;SHT31;54434;50.096;20.082;2023-01-25T12:00:44;4.01;79.34
67641;SHT31;54434;50.096;20.082;2023-01-25T12:03:45;4.03;79.70
67641;SHT31;54434;50.096;20.082;2023-01-25T12:07:03;4.05;79.62
67641;SHT31;54434;50.096;20.082;2023-01-25T12:09:52;4.06;79.60
67641;SHT31;54434;50.096;20.082;2023-01-25T12:12:48;4.02;78.91
67641;SHT31;54434;50.096;20.082;2023-01-25T12:15:53;4.00;79.18
67641;SHT31;54434;50.096;20.082;2023-01-25T12:19:06;3.99;79.57
67641;SHT31;54434;50.096;20.082;2023-01-25T12:22:33;3.97;79.29
67641;SHT31;54434;50.096;20.082;2023-01-25T12:25:29;3.94;79.31
67641;SHT31;54434;50.096;20.082;2023-01-25T12:28:19;3.92;79.24
67641;SHT31;54434;50.096;20.082;2023-01-25T12:31:06;3.93;79.07
67641;SHT31;54434;50.096;20.082;2023-01-25T12:33:55;3.92;79.14
67641;SHT31;54434;50.096;20.082;2023-01-25T12:36:36;3.88;78.89
67641;SHT31;54434;50.096;20.082;2023-01-25T12:39:19;3.85;78.99
67641;SHT31;54434;50.096;20.082;2023-01-25T12:42:06;3.82;79.12
67641;SHT31;54434;50.096;20.082;2023-01-25T12:44:53;3.80;78.90
67641;SHT31;54434;50.096;20.082;2023-01-25T12:47:39;3.78;78.45
67641;SHT31;54434;50.096;20.082;2023-01-25T12:50:24;3.73;78.44
67641;SHT31;54434;50.096;20.082;2023-01-25T12:53:09;3.66;77.96
67641;SHT31;54434;50.096;20.082;2023-01-25T12:55:54;3.65;78.13
67641;SHT31;54434;50.096;20.082;2023-01-25T12:58:37;3.59;78.02
67641;SHT31;54434;50.096;20.082;2023-01-25T13:01:24;3.53;78.31
67641;SHT31;54434;50.096;20.082;2023-01-25T13:04:18;3.50;78.49
67641;SHT31;54434;50.096;20.082;2023-01-25T13:07:19;3.44;77.69
67641;SHT31;54434;50.096;20.082;2023-01-25T13:10:07;3.46;77.93
67641;SHT31;54434;50.096;20.082;2023-01-25T13:12:57;3.45;77.92
67641;SHT31;54434;50.096;20.082;2023-01-25T13:15:50;3.45;78.07
67641;SHT31;54434;50.096;20.082;2023-01-25T13:18:42;3.46;77.58
67641;SHT31;54434;50.096;20.082;2023-01-25T13:21:43;3.47;77.60
67641;SHT31;54434;50.096;20.082;2023-01-25T13:24:24;3.47;76.36
67641;SHT31;54434;50.096;20.082;2023-01-25T13:27:18;3.45;76.01
67641;SHT31;54434;50.096;20.082;2023-01-25T13:30:28;3.38;75.32
67641;SHT31;54434;50.096;20.082;2023-01-25T13:33:06;3.32;75.42
67641;SHT31;54434;50.096;20.082;2023-01-25T13:39:42;3.32;75.54
67641;SHT31;54434;50.096;20.082;2023-01-25T13:42:25;3.27;76.03
67641;SHT31;54434;50.096;20.082;2023-01-25T13:45:11;3.22;75.67
67641;SHT31;54434;50.096;20.082;2023-01-25T13:48:02;3.17;75.69
67641;SHT31;54434;50.096;20.082;2023-01-25T13:50:50;3.17;76.33
67641;SHT31;54434;50.096;20.082;2023-01-25T13:53:32;3.14;75.90
67641;SHT31;54434;50.096;20.082;2023-01-25T13:56:26;3.13;76.38
67641;SHT31;54434;50.096;20.082;2023-01-25T13:59:06;3.13;76.07
67641;SHT31;54434;50.096;20.082;2023-01-25T14:01:57;3.10;76.06
67641;SHT31;54434;50.096;20.082;2023-01-25T14:04:35;3.03;76.08
67641;SHT31;54434;50.096;20.082;2023-01-25T14:07:13;2.97;75.90
67641;SHT31;54434;50.096;20.082;2023-01-25T14:09:53;2.93;76.34
67641;SHT31;54434;50.096;20.082;2023-01-25T14:12:35;2.88;76.57
67641;SHT31;54434;50.096;20.082;2023-01-25T14:15:22;2.86;76.89
67641;SHT31;54434;50.096;20.082;2023-01-25T14:18:13;2.81;76.32
67641;SHT31;54434;50.096;20.082;2023-01-25T14:20:51;2.74;76.11
67641;SHT31;54434;50.096;20.082;2023-01-25T14:23:44;2.68;76.24
67641;SHT31;54434;50.096;20.082;2023-01-25T14:26:24;2.63;76.35
67641;SHT31;54434;50.096;20.082;2023-01-25T14:29:17;2.58;77.31
67641;SHT31;54434;50.096;20.082;2023-01-25T14:32:04;2.57;76.87
67641;SHT31;54434;50.096;20.082;2023-01-25T14:34:51;2.54;76.97
67641;SHT31;54434;50.096;20.082;2023-01-25T14:37:28;2.53;77.12
67641;SHT31;54434;50.096;20.082;2023-01-25T14:40:11;2.50;77.31
67641;SHT31;54434;50.096;20.082;2023-01-25T14:42:53;2.49;77.45
67641;SHT31;54434;50.096;20.082;2023-01-25T14:45:30;2.52;77.62
67641;SHT31;54434;50.096;20.082;2023-01-25T14:51:20;2.50;77.39
67641;SHT31;54434;50.096;20.082;2023-01-25T14:54:02;2.46;77.16
67641;SHT31;54434;50.096;20.082;2023-01-25T14:56:49;2.43;77.21
67641;SHT31;54434;50.096;20.082;2023-01-25T14:59:34;2.43;77.61
67641;SHT31;54434;50.096;20.082;2023-01-25T15:02:18;2.44;77.55
67641;SHT31;54434;50.096;20.082;2023-01-25T15:05:06;2.42;77.31
67641;SHT31;54434;50.096;20.082;2023-01-25T15:07:55;2.40;77.31
67641;SHT31;54434;50.096;20.082;2023-01-25T15:10:52;2.41;77.55
67641;SHT31;54434;50.096;20.082;2023-01-25T15:14:00;2.40;77.65
67641;SHT31;54434;50.096;20.082;2023-01-25T15:16:48;2.36;77.26
67641;SHT31;54434;50.096;20.082;2023-01-25T15:19:28;2.37;77.64
67641;SHT31;54434;50.096;20.082;2023-01-25T15:22:08;2.35;77.58
67641;SHT31;54434;50.096;20.082;2023-01-25T15:24:44;2.35;77.49
67641;SHT31;54434;50.096;20.082;2023-01-25T15:27:29;2.33;77.61
67641;SHT31;54434;50.096;20.082;2023-01-25T15:30:12;2.31;77.74
67641;SHT31;54434;50.096;20.082;2023-01-25T15:32:50;2.28;77.56
67641;SHT31;54434;50.096;20.082;2023-01-25T15:35:27;2.26;77.31
67641;SHT31;54434;50.096;20.082;2023-01-25T15:38:07;2.26;77.23
67641;SHT31;54434;50.096;20.082;2023-01-25T15:40:46;2.26;77.27
67641;SHT31;54434;50.096;20.082;2023-01-25T15:43:23;2.24;77.42
67641;SHT31;54434;50.096;20.082;2023-01-25T15:46:00;2.25;77.59
67641;SHT31;54434;50.096;20.082;2023-01-25T15:48:39;2.23;77.50
67641;SHT31;54434;50.096;20.082;2023-01-25T15:51:18;2.22;77.47
67641;SHT31;54434;50.096;20.082;2023-01-25T15:53:55;2.22;77.43
67641;SHT31;54434;50.096;20.082;2023-01-25T15:56:32;2.21;77.48
67641;SHT31;54434;50.096;20.082;2023-01-25T15:59:16;2.19;77.55
67641;SHT31;54434;50.096;20.082;2023-01-25T16:01:53;2.19;77.85
67641;SHT31;54434;50.096;20.082;2023-01-25T16:04:29;2.20;77.92
67641;SHT31;54434;50.096;20.082;2023-01-25T16:07:11;2.20;78.11
67641;SHT31;54434;50.096;20.082;2023-01-25T16:09:57;2.21;78.36
67641;SHT31;54434;50.096;20.082;2023-01-25T16:12:34;2.22;78.26
67641;SHT31;54434;50.096;20.082;2023-01-25T16:15:11;2.20;78.36
67641;SHT31;54434;50.096;20.082;2023-01-25T16:17:48;2.20;78.48
67641;SHT31;54434;50.096;20.082;2023-01-25T16:20:25;2.18;78.25
67641;SHT31;54434;50.096;20.082;2023-01-25T16:23:01;2.18;78.20
67641;SHT31;54434;50.096;20.082;2023-01-25T16:25:39;2.19;78.32
67641;SHT31;54434;50.096;20.082;2023-01-25T16:28:19;2.20;78.39
67641;SHT31;54434;50.096;20.082;2023-01-25T16:30:56;2.22;78.55
67641;SHT31;54434;50.096;20.082;2023-01-25T16:33:32;2.22;78.54
67641;SHT31;54434;50.096;20.082;2023-01-25T16:36:15;2.20;78.76
67641;SHT31;54434;50.096;20.082;2023-01-25T16:38:53;2.19;79.07
67641;SHT31;54434;50.096;20.082;2023-01-25T16:41:35;2.18;79.25
67641;SHT31;54434;50.096;20.082;2023-01-25T16:44:10;2.18;79.32
67641;SHT31;54434;50.096;20.082;2023-01-25T16:46:46;2.18;79.52
67641;SHT31;54434;50.096;20.082;2023-01-25T16:49:24;2.17;79.79
67641;SHT31;54434;50.096;20.082;2023-01-25T16:52:04;2.15;79.93
67641;SHT31;54434;50.096;20.082;2023-01-25T16:54:42;2.15;80.07
67641;SHT31;54434;50.096;20.082;2023-01-25T16:57:18;2.15;80.10
67641;SHT31;54434;50.096;20.082;2023-01-25T16:59:55;2.14;80.27
67641;SHT31;54434;50.096;20.082;2023-01-25T17:02:34;2.14;80.49
67641;SHT31;54434;50.096;20.082;2023-01-25T17:05:28;2.13;80.53
67641;SHT31;54434;50.096;20.082;2023-01-25T17:08:05;2.12;80.43
67641;SHT31;54434;50.096;20.082;2023-01-25T17:10:41;2.10;80.39